.
WxDataArchive / Data Records for 2014-05-28
2014-05-27 May 2014 2014-05-29

Data Records for Wednesday, 28 May 2014

Time	Temp	Chill	HIndex	Humid	Dewpt	 Wind 	HiWind	WindDir	Rain 	Barom
-----	----	-----	------	-----	-----	------	------	-------	-----	-----
00:00	69.9	69.9	69.9	75	61.6	0	0	---	0.00	29.878 
00:05	69.9	69.9	69.9	75	61.6	0	0	---	0.00	29.878 
00:10	69.8	69.8	69.8	75	61.5	0	0	---	0.00	29.878 
00:15	69.6	69.6	69.6	76	61.7	0	0	---	0.00	29.873 
00:20	69.6	69.6	69.6	77	62.1	0	0	---	0.00	29.873 
00:25	69.4	69.4	69.4	77	61.9	0	0	---	0.00	29.873 
00:30	69.4	69.4	69.4	78	62.2	0	0	---	0.00	29.874 
00:35	69.3	69.3	69.3	78	62.1	0	0	---	0.00	29.874 
00:40	69.4	69.4	69.4	78	62.2	0	0	---	0.00	29.874 
00:45	69.4	69.4	69.4	78	62.2	0	0	---	0.00	29.873 
00:50	69.4	69.4	69.4	78	62.2	0	0	---	0.00	29.873 
00:55	69.4	69.4	69.4	78	62.2	0	0	---	0.00	29.873 
01:00	69.4	69.4	69.4	78	62.2	0	0	---	0.00	29.873 
01:05	69.6	69.6	69.6	78	62.4	0	0	---	0.00	29.873 
01:10	69.8	69.8	69.8	77	62.3	0	0	---	0.00	29.873 
01:15	70.3	70.3	70.3	76	62.4	0	0	---	0.00	29.879 
01:20	70.8	70.8	70.8	75	62.5	0	1	270	0.00	29.879 
01:25	71.3	71.3	71.3	75	63.0	0	1	270	0.00	29.879 
01:30	71.6	71.6	71.6	74	62.9	0	1	270	0.00	29.881 
01:35	72.0	72.0	72.0	73	62.9	0	1	270	0.00	29.881 
01:40	72.0	72.0	72.0	74	63.2	0	1	270	0.00	29.881 
01:45	72.0	72.0	72.0	74	63.2	0	1	270	0.00	29.882 
01:50	72.0	72.0	72.0	74	63.2	0	0	---	0.00	29.882 
01:55	71.8	71.8	71.8	75	63.4	0	0	---	0.00	29.882 
02:00	71.6	71.6	71.6	76	63.6	0	1	270	0.00	29.883 
02:05	71.5	71.5	71.5	76	63.5	0	0	---	0.00	29.883 
02:10	71.3	71.3	71.3	77	63.7	0	0	---	0.00	29.883 
02:15	71.1	71.1	71.1	77	63.5	0	0	---	0.00	29.882 
02:20	70.9	70.9	70.9	78	63.7	0	0	---	0.00	29.882 
02:25	70.8	70.8	70.8	78	63.6	0	0	---	0.00	29.882 
02:30	70.4	70.4	70.4	79	63.6	0	0	---	0.00	29.880 
02:35	70.3	70.3	70.3	80	63.8	0	0	---	0.00	29.880 
02:40	69.9	69.9	69.9	80	63.4	0	0	---	0.00	29.880 
02:45	69.8	69.8	69.8	81	63.7	0	0	---	0.00	29.873 
02:50	69.6	69.6	69.6	81	63.5	0	0	---	0.00	29.873 
02:55	69.6	69.6	69.6	82	63.9	0	0	---	0.00	29.873 
03:00	69.4	69.4	69.4	82	63.7	0	0	---	0.00	29.870 
03:05	69.3	69.3	69.3	82	63.6	0	0	---	0.00	29.870 
03:10	69.1	69.1	69.1	82	63.4	0	0	---	0.00	29.870 
03:15	68.9	68.9	68.9	82	63.2	0	0	---	0.00	29.869 
03:20	68.8	68.8	68.8	83	63.4	0	0	---	0.00	29.869 
03:25	68.6	68.6	68.6	83	63.2	0	0	---	0.00	29.869 
03:30	68.4	68.4	68.4	83	63.0	0	0	---	0.00	29.869 
03:35	68.3	68.3	68.3	84	63.3	0	0	---	0.00	29.869 
03:40	68.1	68.1	68.1	84	63.1	0	0	---	0.00	29.869 
03:45	67.9	67.9	67.9	84	62.9	0	0	---	0.00	29.868 
03:50	67.8	67.8	67.8	85	63.1	0	0	---	0.00	29.868 
03:55	67.6	67.6	67.6	85	62.9	0	0	---	0.00	29.868 
04:00	67.4	67.4	67.4	86	63.1	0	0	---	0.00	29.870 
04:05	67.1	67.1	67.1	86	62.8	0	0	---	0.00	29.870 
04:10	66.9	66.9	66.9	86	62.6	0	0	---	0.00	29.870 
04:15	66.8	66.8	66.8	87	62.8	0	0	---	0.00	29.869 
04:20	66.6	66.6	66.6	87	62.6	0	0	---	0.00	29.869 
04:25	66.3	66.3	66.3	88	62.6	0	0	---	0.00	29.869 
04:30	66.3	66.3	66.3	88	62.6	0	0	---	0.00	29.873 
04:35	66.1	66.1	66.1	88	62.4	0	0	---	0.00	29.873 
04:40	66.0	66.0	66.0	89	62.7	0	0	---	0.00	29.873 
04:45	66.0	66.0	66.0	89	62.7	0	0	---	0.00	29.882 
04:50	65.8	65.8	65.8	89	62.5	0	0	---	0.00	29.882 
04:55	65.6	65.6	65.6	89	62.3	0	0	---	0.00	29.882 
05:00	65.6	65.6	65.6	89	62.3	0	0	---	0.00	29.879 
05:05	65.6	65.6	65.6	90	62.6	0	0	---	0.00	29.879 
05:10	65.6	65.6	65.6	90	62.6	0	0	---	0.00	29.879 
05:15	65.6	65.6	65.6	90	62.6	0	0	---	0.00	29.884 
05:20	65.6	65.6	65.6	91	62.9	0	0	---	0.00	29.884 
05:25	65.6	65.6	65.6	91	62.9	0	0	---	0.00	29.884 
05:30	65.6	65.6	65.6	91	62.9	0	0	---	0.00	29.883 
05:35	65.5	65.5	65.5	91	62.8	0	0	---	0.00	29.883 
05:40	65.3	65.3	65.3	91	62.6	0	0	---	0.00	29.883 
05:45	65.3	65.3	65.3	91	62.6	0	0	---	0.00	29.884 
05:50	65.2	65.2	65.2	91	62.5	0	0	---	0.00	29.884 
05:55	65.2	65.2	65.2	91	62.5	0	0	---	0.00	29.884 
06:00	65.2	65.2	65.2	92	62.8	0	0	---	0.00	29.885 
06:05	65.2	65.2	65.2	92	62.8	0	0	---	0.00	29.885 
06:10	65.0	65.0	65.0	92	62.6	0	0	---	0.00	29.885 
06:15	65.0	65.0	65.0	92	62.6	0	0	---	0.00	29.890 
06:20	65.0	65.0	65.0	92	62.6	0	0	---	0.00	29.890 
06:25	65.0	65.0	65.0	92	62.6	0	0	---	0.00	29.890 
06:30	65.0	65.0	65.0	92	62.6	0	0	---	0.00	29.897 
06:35	65.0	65.0	65.0	92	62.6	0	0	---	0.00	29.897 
06:40	65.0	65.0	65.0	92	62.6	0	0	---	0.00	29.897 
06:45	65.0	65.0	65.0	92	62.6	0	0	---	0.00	29.900 
06:50	64.8	64.8	64.8	92	62.4	0	0	---	0.00	29.900 
06:55	64.7	64.7	64.7	92	62.3	0	0	---	0.00	29.900 
07:00	64.7	64.7	64.7	93	62.6	0	0	---	0.00	29.904 
07:05	64.7	64.7	64.7	93	62.6	0	0	---	0.00	29.904 
07:10	65.0	65.0	65.0	93	62.9	0	0	---	0.00	29.904 
07:15	65.3	65.3	65.3	93	63.2	0	1	248	0.00	29.912 
07:20	65.6	65.6	65.6	93	63.5	0	1	248	0.00	29.912 
07:25	65.8	65.8	65.8	93	63.7	0	1	248	0.00	29.912 
07:30	65.8	65.8	65.8	93	63.7	0	0	---	0.00	29.913 
07:35	66.0	66.0	66.0	93	63.9	0	1	248	0.00	29.913 
07:40	66.3	66.3	66.3	93	64.2	0	1	248	0.00	29.913 
07:45	66.4	66.4	66.4	93	64.3	0	1	248	0.00	29.917 
07:50	66.8	66.8	66.8	93	64.7	0	1	248	0.00	29.917 
07:55	67.1	67.1	67.1	92	64.7	0	2	248	0.00	29.917 
08:00	67.3	67.3	67.3	92	64.9	0	2	248	0.00	29.925 
08:05	67.6	67.6	67.6	92	65.2	1	4	248	0.00	29.925 
08:10	67.9	67.9	67.9	91	65.2	0	2	248	0.00	29.925 
08:15	68.3	68.3	68.3	90	65.2	1	3	248	0.00	29.931 
08:20	68.8	68.8	68.8	89	65.4	1	3	248	0.00	29.931 
08:25	69.1	69.1	69.1	88	65.4	0	2	248	0.00	29.931 
08:30	69.4	69.4	69.4	87	65.4	1	2	248	0.00	29.930 
08:35	69.9	69.9	69.9	86	65.5	0	2	248	0.00	29.930 
08:40	70.3	70.3	70.3	85	65.6	1	2	248	0.00	29.930 
08:45	70.8	70.8	70.8	84	65.7	0	1	248	0.00	29.931 
08:50	71.3	71.3	71.3	82	65.5	0	2	248	0.00	29.931 
08:55	71.8	71.8	71.8	81	65.6	0	2	248	0.00	29.931 
09:00	72.1	72.1	72.1	79	65.2	1	3	248	0.00	29.932 
09:05	72.3	72.3	72.3	76	64.3	1	3	248	0.00	29.932 
09:10	72.5	72.5	72.5	75	64.1	1	3	248	0.00	29.932 
09:15	73.0	73.0	73.0	74	64.2	1	3	248	0.00	29.936 
09:20	73.5	73.5	73.5	73	64.3	1	2	248	0.00	29.936 
09:25	74.4	74.4	74.4	74	65.6	0	2	248	0.00	29.936 
09:30	74.7	74.7	74.7	72	65.1	1	3	248	0.00	29.935 
09:35	74.7	74.7	74.7	68	63.4	1	4	248	0.00	29.935 
09:40	74.9	74.9	74.9	68	63.6	1	3	248	0.00	29.935 
09:45	75.1	75.1	76.9	69	64.2	1	2	248	0.00	29.943 
09:50	75.1	75.1	76.9	69	64.2	1	3	248	0.00	29.943 
09:55	75.1	75.1	77.1	66	62.9	1	3	248	0.00	29.943 
10:00	75.3	75.3	77.3	65	62.7	0	3	248	0.00	29.944 
10:05	75.6	75.6	77.5	65	63.0	0	1	248	0.00	29.944 
10:10	76.3	76.3	78.2	62	62.3	0	2	248	0.00	29.944 
10:15	76.7	76.7	78.5	64	63.6	1	4	248	0.00	29.943 
10:20	77.2	77.2	79.0	62	63.2	1	3	248	0.00	29.943 
10:25	77.9	77.9	79.6	61	63.3	0	2	248	0.00	29.943 
10:30	78.3	78.3	80.0	61	63.7	0	2	248	0.00	29.941 
10:35	78.1	78.1	79.7	58	62.1	1	2	248	0.00	29.941 
10:40	78.1	78.1	79.8	60	63.1	0	3	248	0.00	29.941 
10:45	78.3	78.3	79.9	58	62.3	1	3	248	0.00	29.940 
10:50	78.6	78.6	80.3	60	63.5	1	3	248	0.00	29.940 
10:55	78.6	78.6	80.1	57	62.1	0	2	248	0.00	29.940 
11:00	78.6	78.6	80.0	56	61.6	1	3	248	0.00	29.939 
11:05	78.8	78.8	80.2	56	61.8	0	2	270	0.00	29.939 
11:10	79.2	79.2	80.7	58	63.1	1	2	270	0.00	29.939 
11:15	79.6	79.6	80.8	54	61.5	0	3	270	0.00	29.942 
11:20	79.9	79.9	81.1	54	61.7	0	3	270	0.00	29.942 
11:25	80.3	80.3	81.5	54	62.1	0	1	270	0.00	29.942 
11:30	80.3	80.3	81.3	52	61.0	1	3	270	0.00	29.945 
11:35	80.1	80.1	81.3	54	61.9	1	4	270	0.00	29.945 
11:40	80.5	80.5	81.5	52	61.2	0	2	270	0.00	29.945 
11:45	80.7	80.7	81.6	51	60.9	1	4	270	0.00	29.945 
11:50	81.1	81.1	81.8	50	60.7	1	3	270	0.00	29.945 
11:55	81.4	81.4	82.3	51	61.5	0	3	270	0.00	29.945 
12:00	81.6	81.6	82.2	49	60.6	0	1	270	0.00	29.944 
12:05	82.2	82.2	83.3	52	62.8	0	2	270	0.00	29.944 
12:10	82.6	82.6	83.4	50	62.0	0	3	270	0.00	29.944 
12:15	82.6	82.6	83.6	51	62.6	1	4	248	0.00	29.944 
12:20	82.0	82.0	82.8	50	61.5	2	4	292	0.00	29.944 
12:25	82.2	82.2	82.8	49	61.1	1	4	292	0.00	29.944 
12:30	82.4	82.4	83.4	51	62.4	0	1	292	0.00	29.943 
12:35	83.0	83.0	84.1	51	63.0	1	2	292	0.00	29.943 
12:40	83.0	83.0	83.9	50	62.4	0	3	292	0.00	29.943 
12:45	83.0	83.0	83.5	48	61.3	0	3	292	0.00	29.942 
12:50	83.0	83.0	83.5	48	61.3	0	3	315	0.00	29.942 
12:55	82.6	82.6	83.1	48	60.9	1	4	315	0.00	29.942 
13:00	82.2	82.2	83.1	51	62.2	1	4	315	0.00	29.943 
13:05	82.4	82.4	83.4	51	62.4	1	4	315	0.00	29.943 
13:10	82.6	82.6	83.3	49	61.5	1	3	315	0.00	29.943 
13:15	82.6	82.6	83.4	50	62.0	0	3	315	0.00	29.933 
13:20	83.0	83.0	83.4	47	60.7	1	5	315	0.00	29.933 
13:25	83.0	83.0	83.7	49	61.8	1	3	315	0.00	29.933 
13:30	82.8	82.8	83.2	47	60.5	2	3	315	0.00	29.928 
13:35	82.6	82.6	83.4	50	62.0	0	2	315	0.00	29.928 
13:40	82.6	82.6	83.3	49	61.5	1	4	315	0.00	29.928 
13:45	82.8	82.8	83.3	48	61.1	1	2	315	0.00	29.927 
13:50	82.8	82.8	83.7	50	62.2	1	3	315	0.00	29.927 
13:55	82.6	82.6	83.6	51	62.6	1	3	315	0.00	29.927 
14:00	82.8	82.8	83.2	47	60.5	2	5	315	0.00	29.922 
14:05	82.6	82.6	82.8	46	59.7	2	4	315	0.00	29.922 
14:10	82.4	82.4	82.7	47	60.1	0	2	315	0.00	29.922 
14:15	82.4	82.4	83.2	50	61.9	1	4	338	0.00	29.925 
14:20	82.0	82.0	82.9	51	62.1	1	5	338	0.00	29.925 
14:25	81.6	81.6	82.1	48	60.0	2	5	292	0.00	29.925 
14:30	81.4	81.4	82.0	49	60.4	2	4	315	0.00	29.928 
14:35	81.2	81.2	81.9	50	60.8	1	2	315	0.00	29.928 
14:40	81.1	81.1	82.1	52	61.8	1	3	315	0.00	29.928 
14:45	81.1	81.1	82.2	53	62.3	2	5	315	0.00	29.928 
14:50	81.2	81.2	82.3	53	62.4	1	4	315	0.00	29.928 
14:55	81.4	81.4	82.3	51	61.5	2	4	315	0.00	29.928 
15:00	81.4	81.4	82.3	51	61.5	2	5	338	0.00	29.916 
15:05	81.2	81.2	82.1	51	61.3	2	4	315	0.00	29.916 
15:10	80.9	80.9	81.8	51	61.0	1	5	315	0.00	29.916 
15:15	80.9	80.9	81.8	51	61.0	1	4	315	0.00	29.917 
15:20	80.9	80.9	81.9	52	61.6	2	4	315	0.00	29.917 
15:25	80.9	80.9	81.8	51	61.0	2	4	315	0.00	29.917 
15:30	80.7	80.7	81.7	52	61.4	2	4	292	0.00	29.917 
15:35	80.7	80.7	81.4	50	60.3	2	4	270	0.00	29.917 
15:40	80.9	80.9	82.0	53	62.1	1	4	338	0.00	29.917 
15:45	80.7	80.7	81.6	51	60.9	2	6	292	0.00	29.921 
15:50	80.1	80.1	81.1	52	60.9	2	3	292	0.00	29.921 
15:55	79.8	79.8	80.9	53	61.1	1	4	292	0.00	29.921 
16:00	79.6	79.6	80.8	54	61.5	0	2	315	0.00	29.921 
16:05	79.6	79.6	80.8	54	61.5	1	4	315	0.00	29.921 
16:10	79.6	79.6	81.1	57	63.0	0	3	315	0.00	29.921 
16:15	79.6	79.6	81.1	57	63.0	1	3	315	0.00	29.919 
16:20	79.0	79.0	80.3	55	61.4	1	5	270	0.00	29.919 
16:25	79.0	79.0	80.5	58	62.9	0	1	292	0.00	29.919 
16:30	79.2	79.2	80.8	59	63.6	1	3	292	0.00	29.917 
16:35	79.4	79.4	80.9	57	62.8	1	3	292	0.00	29.917 
16:40	79.4	79.4	80.9	58	63.3	1	4	292	0.00	29.917 
16:45	79.4	79.4	80.9	57	62.8	1	3	292	0.00	29.916 
16:50	79.4	79.4	80.9	58	63.3	0	2	292	0.00	29.916 
16:55	79.4	79.4	80.9	58	63.3	0	2	292	0.00	29.916 
17:00	79.0	79.0	80.5	58	62.9	1	3	292	0.00	29.912 
17:05	78.8	78.8	80.3	58	62.8	0	3	292	0.00	29.912 
17:10	78.6	78.6	80.3	60	63.5	1	3	292	0.00	29.912 
17:15	78.5	78.5	80.2	60	63.4	0	2	292	0.00	29.915 
17:20	78.3	78.3	80.0	61	63.7	0	2	292	0.00	29.915 
17:25	78.3	78.3	80.0	61	63.7	0	1	292	0.00	29.915 
17:30	78.1	78.1	79.8	60	63.1	0	1	292	0.00	29.921 
17:35	78.3	78.3	80.0	61	63.7	0	1	292	0.00	29.921 
17:40	78.3	78.3	80.0	61	63.7	0	2	292	0.00	29.921 
17:45	78.1	78.1	79.8	60	63.1	0	1	292	0.00	29.933 
17:50	78.3	78.3	80.1	63	64.6	1	6	112	0.00	29.933 
17:55	77.9	77.9	79.7	65	65.2	2	5	112	0.00	29.933 
18:00	77.6	77.6	79.4	66	65.3	2	5	112	0.00	29.942 
18:05	77.2	77.2	79.0	67	65.4	1	4	112	0.00	29.942 
18:10	77.0	77.0	78.8	67	65.2	1	3	112	0.00	29.942 
18:15	76.8	76.8	78.6	67	65.0	2	5	90	0.00	29.949 
18:20	76.5	76.5	78.3	67	64.7	2	6	90	0.00	29.949 
18:25	75.8	75.8	77.6	67	64.0	3	7	90	0.00	29.949 
18:30	75.3	75.3	77.1	68	64.0	3	10	90	0.00	29.959 
18:35	74.9	74.9	74.9	67	63.2	4	9	90	0.00	29.959 
18:40	74.6	74.6	74.6	68	63.3	3	5	90	0.00	29.959 
18:45	74.4	74.4	74.4	68	63.1	3	9	90	0.00	29.966 
18:50	74.2	74.2	74.2	68	62.9	3	10	90	0.00	29.966 
18:55	74.2	74.2	74.2	69	63.4	2	5	90	0.00	29.966 
19:00	74.0	74.0	74.0	69	63.2	2	6	68	0.00	29.971 
19:05	74.0	74.0	74.0	69	63.2	3	9	90	0.00	29.971 
19:10	73.9	73.9	73.9	70	63.5	1	4	68	0.00	29.971 
19:15	73.7	73.7	73.7	71	63.7	2	6	90	0.00	29.969 
19:20	73.5	73.5	73.5	72	63.9	2	5	90	0.00	29.969 
19:25	72.8	72.8	72.8	73	63.6	2	7	112	0.00	29.969 
19:30	72.3	72.3	72.3	74	63.5	2	5	90	0.00	29.970 
19:35	72.0	72.0	72.0	75	63.6	3	5	68	0.00	29.970 
19:40	71.8	71.8	71.8	76	63.8	2	4	90	0.00	29.970 
19:45	71.6	71.6	71.6	77	64.0	1	4	90	0.00	29.972 
19:50	71.5	71.5	71.5	76	63.5	1	3	90	0.00	29.972 
19:55	71.3	71.3	71.3	77	63.7	2	4	90	0.00	29.972 
20:00	71.1	71.1	71.1	77	63.5	2	5	90	0.00	29.972 
20:05	71.1	71.1	71.1	77	63.5	2	5	90	0.00	29.972 
20:10	70.9	70.9	70.9	77	63.3	2	6	90	0.00	29.972 
20:15	70.9	70.9	70.9	77	63.3	1	2	112	0.00	29.977 
20:20	70.9	70.9	70.9	77	63.3	1	4	112	0.00	29.977 
20:25	70.9	70.9	70.9	77	63.3	1	4	112	0.00	29.977 
20:30	70.8	70.8	70.8	77	63.2	1	3	112	0.00	29.981 
20:35	70.8	70.8	70.8	77	63.2	1	3	112	0.00	29.981 
20:40	70.8	70.8	70.8	77	63.2	1	4	112	0.00	29.981 
20:45	70.8	70.8	70.8	77	63.2	1	5	112	0.00	29.983 
20:50	70.8	70.8	70.8	77	63.2	1	3	90	0.00	29.983 
20:55	70.8	70.8	70.8	78	63.6	0	2	90	0.00	29.983 
21:00	70.8	70.8	70.8	78	63.6	0	3	90	0.00	29.983 
21:05	70.6	70.6	70.6	78	63.4	1	3	90	0.00	29.983 
21:10	70.4	70.4	70.4	79	63.6	1	4	90	0.00	29.983 
21:15	70.4	70.4	70.4	79	63.6	1	4	90	0.00	29.984 
21:20	70.3	70.3	70.3	79	63.5	0	2	90	0.00	29.984 
21:25	70.3	70.3	70.3	79	63.5	0	2	90	0.00	29.984 
21:30	70.3	70.3	70.3	79	63.5	0	2	90	0.00	29.988 
21:35	70.3	70.3	70.3	79	63.5	1	3	90	0.00	29.988 
21:40	70.3	70.3	70.3	80	63.8	0	2	90	0.00	29.988 
21:45	70.3	70.3	70.3	80	63.8	1	5	90	0.00	29.997 
21:50	70.1	70.1	70.1	80	63.6	2	4	90	0.00	29.997 
21:55	70.1	70.1	70.1	80	63.6	1	3	90	0.00	29.997 
22:00	70.1	70.1	70.1	80	63.6	0	2	90	0.00	29.999 
22:05	69.9	69.9	69.9	80	63.4	0	4	90	0.00	29.999 
22:10	69.8	69.8	69.8	80	63.3	1	3	90	0.00	29.999 
22:15	69.6	69.6	69.6	80	63.1	1	3	90	0.00	29.996 
22:20	69.3	69.3	69.3	79	62.5	3	6	90	0.00	29.996 
22:25	68.9	68.9	68.9	79	62.1	2	4	112	0.00	29.996 
22:30	68.8	68.8	68.8	79	62.0	2	5	90	0.00	29.997 
22:35	68.4	68.4	68.4	79	61.6	2	6	90	0.00	29.997 
22:40	68.3	68.3	68.3	79	61.5	2	9	90	0.00	29.997 
22:45	68.1	68.1	68.1	79	61.3	2	6	112	0.00	30.002 
22:50	68.1	68.1	68.1	79	61.3	2	5	90	0.00	30.002 
22:55	67.9	67.9	67.9	79	61.1	1	5	90	0.00	30.002 
23:00	67.9	67.9	67.9	79	61.1	1	6	90	0.00	30.005 
23:05	67.8	67.8	67.8	79	61.0	2	5	90	0.00	30.005 
23:10	67.6	67.6	67.6	79	60.8	2	4	90	0.00	30.005 
23:15	67.4	67.4	67.4	78	60.3	3	5	90	0.00	30.006 
23:20	67.1	67.1	67.1	77	59.6	2	6	112	0.00	30.006 
23:25	66.8	66.8	66.8	77	59.3	2	5	112	0.00	30.006 
23:30	66.6	66.6	66.6	77	59.2	2	10	90	0.00	30.008 
23:35	66.4	66.4	66.4	77	59.0	2	7	90	0.00	30.008 
23:40	66.4	66.4	66.4	77	59.0	1	4	90	0.00	30.008 
23:45	66.3	66.3	66.3	77	58.9	2	6	90	0.00	30.010 
23:50	66.1	66.1	66.1	77	58.7	1	4	90	0.00	30.010 
23:55	66.1	66.1	66.1	77	58.7	2	4	90	0.00	30.010 

CoCoRaHS
IN-AL-39
A2 Web Hosting
Creative Commons License
GoDaddy
search engine by freefind advanced

loaded 2018-11-15 02:58:19 • last modified 2010-11-18 10:43:29
Privacy PolicyDisclaimer
• wx.awcolley.com is powered by PmWiki v.2002016 •
• all content (unless otherwise noted) © 2018 A W Colley